Time;durP1;ratioP1;P1;durP2;ratioP2;P2;SDS_P1;SDS_P2;PMS_P1;PMS_P2;Temp;Humidity;BMP_temperature;BMP_pressure;BME280_temperature;BME280_humidity;BME280_pressure;Samples;Min_cycle;Max_cycle;Signal;HPM_P1;HPM_P2
2023/08/26 00:04:20;;;;;;;5.50;2.70;;;;;13.10;100539.00;;;;10072396;28;20838;-77
2023/08/26 00:09:22;;;;;;;10.43;2.50;;;;;13.00;100530.00;;;;10086072;28;20744;-76
2023/08/26 00:14:23;;;;;;;10.10;2.63;;;;;12.90;100524.00;;;;10097432;28;20584;-77
2023/08/26 00:19:24;;;;;;;7.37;2.50;;;;;12.80;100530.00;;;;10089936;28;20233;-77
2023/08/26 00:24:26;;;;;;;7.13;2.63;;;;;12.80;100530.00;;;;10074071;28;20696;-77
2023/08/26 00:29:27;;;;;;;3.87;2.47;;;;;12.80;100516.00;;;;10071260;28;20301;-77
2023/08/26 00:34:28;;;;;;;5.27;2.20;;;;;12.70;100515.00;;;;10070482;28;20312;-77
2023/08/26 00:39:31;;;;;;;8.67;2.57;;;;;12.70;100513.00;;;;10067962;28;20233;-78
2023/08/26 00:44:32;;;;;;;7.37;2.30;;;;;12.70;100516.00;;;;10072241;28;20767;-77
2023/08/26 00:49:34;;;;;;;7.40;2.30;;;;;12.70;100518.00;;;;10094172;28;20203;-77
2023/08/26 00:54:35;;;;;;;9.37;2.23;;;;;12.80;100514.00;;;;10093748;28;21372;-77
2023/08/26 00:59:37;;;;;;;5.57;2.33;;;;;12.80;100516.00;;;;10091045;28;20222;-77
2023/08/26 01:04:39;;;;;;;9.27;2.30;;;;;12.80;100497.00;;;;10097178;28;20238;-76
2023/08/26 01:09:41;;;;;;;5.03;2.40;;;;;12.70;100514.00;;;;10075275;28;21441;-76
2023/08/26 01:14:52;;;;;;;4.23;2.30;;;;;12.70;100511.00;;;;10102061;28;20641;-77
2023/08/26 01:19:56;;;;;;;9.67;2.17;;;;;12.80;100505.00;;;;10092692;28;20334;-77
2023/08/26 01:24:59;;;;;;;4.10;2.00;;;;;12.80;100504.00;;;;10077185;28;20206;-77
2023/08/26 01:30:00;;;;;;;6.83;2.27;;;;;12.80;100514.00;;;;10071987;28;20227;-78
2023/08/26 01:35:05;;;;;;;6.17;1.57;;;;;12.80;100502.00;;;;10094324;28;20261;-77
2023/08/26 01:40:10;;;;;;;6.50;2.40;;;;;12.80;100503.00;;;;10074447;28;21649;-77
2023/08/26 01:45:12;;;;;;;6.30;1.97;;;;;12.70;100506.00;;;;10096662;28;20214;-77
2023/08/26 01:50:13;;;;;;;4.53;2.10;;;;;12.70;100496.00;;;;10098943;28;20913;-77
2023/08/26 01:55:14;;;;;;;3.77;2.13;;;;;12.70;100506.00;;;;10115000;28;20293;-77
2023/08/26 02:00:16;;;;;;;6.87;2.23;;;;;12.60;100498.00;;;;10096661;28;20225;-76
2023/08/26 02:05:17;;;;;;;6.73;2.67;;;;;12.60;100504.00;;;;10096149;28;20214;-77
2023/08/26 02:10:18;;;;;;;4.53;2.07;;;;;12.50;100502.00;;;;10058399;28;20980;-77
2023/08/26 02:15:20;;;;;;;10.70;2.80;;;;;12.50;100487.00;;;;10077427;28;20216;-78
2023/08/26 02:20:21;;;;;;;6.53;2.80;;;;;12.50;100483.00;;;;10087164;28;20228;-77
2023/08/26 02:25:23;;;;;;;6.70;2.30;;;;;12.60;100482.00;;;;10111445;28;20249;-76
2023/08/26 02:30:25;;;;;;;5.83;2.53;;;;;12.60;100481.00;;;;10062987;28;20443;-77
2023/08/26 02:35:26;;;;;;;7.53;2.20;;;;;12.50;100486.00;;;;10073266;28;20214;-77
2023/08/26 02:40:30;;;;;;;5.20;2.20;;;;;12.50;100476.00;;;;10096760;28;20294;-78
2023/08/26 02:45:31;;;;;;;3.63;2.20;;;;;12.40;100478.00;;;;10072699;28;20210;-77
2023/08/26 02:50:34;;;;;;;5.03;2.30;;;;;12.30;100476.00;;;;10089430;28;20210;-76
2023/08/26 02:55:35;;;;;;;7.43;2.37;;;;;12.30;100469.00;;;;10077097;28;20206;-76
2023/08/26 03:00:37;;;;;;;10.03;2.90;;;;;12.30;100481.00;;;;10093788;28;20222;-77
2023/08/26 03:05:38;;;;;;;5.40;2.87;;;;;12.30;100481.00;;;;10088995;28;20210;-76
2023/08/26 03:10:39;;;;;;;6.57;2.50;;;;;12.30;100472.00;;;;10074782;28;20643;-76
2023/08/26 03:15:41;;;;;;;6.37;2.17;;;;;12.30;100471.00;;;;10076267;28;22329;-77
2023/08/26 03:20:42;;;;;;;4.57;2.40;;;;;12.40;100468.00;;;;10068176;28;20732;-76
2023/08/26 03:25:44;;;;;;;4.93;2.23;;;;;12.40;100469.00;;;;10071450;28;20214;-77
2023/08/26 03:30:45;;;;;;;4.97;2.13;;;;;12.30;100469.00;;;;10075012;28;20221;-77
2023/08/26 03:35:46;;;;;;;4.43;2.40;;;;;12.40;100473.00;;;;10055646;28;20537;-77
2023/08/26 03:40:48;;;;;;;6.87;3.07;;;;;12.40;100469.00;;;;10099224;28;21874;-76
2023/08/26 03:45:49;;;;;;;8.20;2.87;;;;;12.40;100468.00;;;;10113299;28;20214;-76
2023/08/26 03:50:52;;;;;;;7.07;2.53;;;;;12.40;100475.00;;;;10070762;28;20207;-75
2023/08/26 03:55:54;;;;;;;7.33;2.43;;;;;12.40;100472.00;;;;10096089;28;20390;-77
2023/08/26 04:01:01;;;;;;;6.23;2.70;;;;;12.40;100467.00;;;;10072633;28;21631;-75
2023/08/26 04:06:05;;;;;;;6.30;2.90;;;;;12.40;100478.00;;;;10091351;28;20209;-76
2023/08/26 04:11:07;;;;;;;9.83;3.27;;;;;12.50;100477.00;;;;10094056;28;20202;-76
2023/08/26 04:16:09;;;;;;;6.47;2.57;;;;;12.60;100486.00;;;;10072783;28;20743;-77
2023/08/26 04:21:10;;;;;;;5.20;2.30;;;;;12.60;100491.00;;;;10068339;28;20268;-76
2023/08/26 04:26:11;;;;;;;5.23;2.43;;;;;12.60;100498.00;;;;10055432;28;20636;-77
2023/08/26 04:31:13;;;;;;;5.97;2.03;;;;;12.60;100502.00;;;;10054066;28;20791;-76
2023/08/26 04:36:15;;;;;;;6.10;2.17;;;;;12.50;100500.00;;;;10065669;28;21044;-77
2023/08/26 04:41:16;;;;;;;4.50;2.33;;;;;12.50;100501.00;;;;10059981;29;20744;-77
2023/08/26 04:46:19;;;;;;;3.83;2.30;;;;;12.60;100509.00;;;;10066133;28;20937;-77
2023/08/26 04:51:20;;;;;;;7.23;2.30;;;;;12.60;100515.00;;;;10078632;28;21668;-75
2023/08/26 04:56:21;;;;;;;5.27;1.93;;;;;12.60;100516.00;;;;10078486;28;20286;-76
2023/08/26 05:01:22;;;;;;;6.50;2.30;;;;;12.70;100527.00;;;;10100392;28;20329;-77
2023/08/26 05:06:24;;;;;;;4.90;2.53;;;;;12.70;100525.00;;;;10088073;28;20234;-77
2023/08/26 05:11:25;;;;;;;5.90;2.37;;;;;12.80;100527.00;;;;10064836;28;20235;-77
2023/08/26 05:16:27;;;;;;;7.07;2.33;;;;;12.90;100525.00;;;;10069910;28;20301;-77
2023/08/26 05:21:30;;;;;;;8.00;2.33;;;;;13.00;100518.00;;;;10077954;28;20438;-77
2023/08/26 05:26:31;;;;;;;5.33;2.37;;;;;13.20;100520.00;;;;10105026;28;21196;-77
2023/08/26 05:31:33;;;;;;;7.30;2.90;;;;;13.30;100524.00;;;;10086597;28;20229;-77
2023/08/26 05:36:34;;;;;;;6.13;2.30;;;;;13.50;100516.00;;;;10085323;28;20277;-78
2023/08/26 05:41:36;;;;;;;5.90;2.57;;;;;13.70;100513.00;;;;10117344;28;20229;-76
2023/08/26 05:46:37;;;;;;;5.67;2.63;;;;;13.80;100505.00;;;;10127140;28;20225;-76
2023/08/26 05:51:38;;;;;;;6.13;2.92;;;;;14.00;100510.00;;;;10102278;28;20232;-77
2023/08/26 05:56:40;;;;;;;5.83;2.70;;;;;14.20;100511.00;;;;10106514;28;20270;-78
2023/08/26 06:01:42;;;;;;;8.90;2.13;;;;;14.30;100511.00;;;;10097986;28;20226;-78
2023/08/26 06:06:44;;;;;;;6.82;2.78;;;;;14.60;100519.00;;;;10062473;28;20615;-77
2023/08/26 06:11:47;;;;;;;5.72;2.05;;;;;14.90;100515.00;;;;10097821;28;20210;-77
2023/08/26 06:16:49;;;;;;;4.18;2.20;;;;;15.30;100517.00;;;;10076001;28;20277;-77
2023/08/26 06:21:50;;;;;;;2.97;2.00;;;;;15.90;100506.00;;;;10055864;28;20334;-77
2023/08/26 06:26:51;;;;;;;4.57;2.03;;;;;16.40;100511.00;;;;10052615;28;20209;-77
2023/08/26 06:31:52;;;;;;;4.13;1.63;;;;;16.80;100515.00;;;;10088510;28;20210;-75
2023/08/26 06:36:54;;;;;;;4.65;1.75;;;;;17.20;100514.00;;;;10061380;28;20439;-78
2023/08/26 06:41:55;;;;;;;5.88;2.08;;;;;17.70;100516.00;;;;10070322;28;20225;-77
2023/08/26 06:46:57;;;;;;;3.28;1.33;;;;;18.10;100519.00;;;;10067043;28;20215;-78
2023/08/26 06:51:58;;;;;;;6.05;1.77;;;;;18.30;100523.00;;;;10066490;28;20263;-77
2023/08/26 06:57:00;;;;;;;6.00;2.05;;;;;18.60;100518.00;;;;10086184;28;21448;-77
2023/08/26 07:02:01;;;;;;;5.28;1.65;;;;;18.80;100513.00;;;;10085997;28;20334;-77
2023/08/26 07:07:03;;;;;;;3.08;1.40;;;;;19.10;100515.00;;;;10085955;28;20897;-78
2023/08/26 07:12:04;;;;;;;2.28;1.20;;;;;19.40;100525.00;;;;10066443;28;20502;-77
2023/08/26 07:17:06;;;;;;;4.40;1.33;;;;;19.50;100528.00;;;;10062632;28;20929;-78
2023/08/26 07:22:07;;;;;;;2.25;1.27;;;;;19.40;100534.00;;;;10065399;28;20489;-77
2023/08/26 07:27:09;;;;;;;4.72;1.30;;;;;19.10;100548.00;;;;10064181;28;20214;-78
2023/08/26 07:32:10;;;;;;;4.60;1.65;;;;;18.80;100539.00;;;;10076870;28;20221;-77
2023/08/26 07:37:11;;;;;;;3.53;1.40;;;;;18.70;100530.00;;;;10094699;28;20818;-77
2023/08/26 07:42:13;;;;;;;1.98;1.17;;;;;19.00;100529.00;;;;10102711;28;20841;-78
2023/08/26 07:47:15;;;;;;;2.83;1.30;;;;;19.10;100530.00;;;;10073155;28;20214;-79
2023/08/26 07:52:16;;;;;;;4.55;1.33;;;;;19.50;100523.00;;;;10060812;28;20209;-78
2023/08/26 07:57:18;;;;;;;2.95;1.55;;;;;19.70;100530.00;;;;10071456;28;20236;-78
2023/08/26 08:02:19;;;;;;;2.95;1.60;;;;;20.20;100539.00;;;;10096354;28;20226;-78
2023/08/26 08:07:20;;;;;;;5.50;1.73;;;;;20.80;100537.00;;;;10065213;28;20214;-77
2023/08/26 08:12:22;;;;;;;6.82;1.90;;;;;21.10;100542.00;;;;10062132;28;20818;-78
2023/08/26 08:17:23;;;;;;;6.38;2.00;;;;;21.30;100547.00;;;;10072563;28;20213;-79
2023/08/26 08:22:41;;;;;;;3.28;1.55;;;;;21.40;100543.00;;;;10068307;28;21687;-78
2023/08/26 08:27:42;;;;;;;4.93;1.73;;;;;21.40;100538.00;;;;10057542;28;20286;-78
2023/08/26 08:32:44;;;;;;;3.67;1.40;;;;;21.70;100544.00;;;;10056676;28;20209;-78
2023/08/26 08:37:45;;;;;;;1.98;1.05;;;;;21.90;100548.00;;;;10073707;28;20945;-77
2023/08/26 08:42:47;;;;;;;2.90;1.40;;;;;22.40;100549.00;;;;10067030;28;20245;-78
2023/08/26 08:47:52;;;;;;;2.42;1.38;;;;;22.80;100553.00;;;;10072348;28;20210;-77
2023/08/26 08:52:58;;;;;;;2.78;1.42;;;;;23.30;100548.00;;;;10064906;28;20816;-78
2023/08/26 08:58:04;;;;;;;3.60;1.60;;;;;23.70;100535.00;;;;10058744;28;20445;-78
2023/08/26 09:03:08;;;;;;;4.93;1.70;;;;;23.90;100536.00;;;;10093647;28;20215;-78
2023/08/26 09:08:12;;;;;;;3.83;1.63;;;;;24.00;100540.00;;;;10083013;28;20526;-78
2023/08/26 09:13:14;;;;;;;3.70;1.30;;;;;24.20;100538.00;;;;10073156;28;20325;-77
2023/08/26 09:18:18;;;;;;;5.00;1.30;;;;;24.40;100536.00;;;;10097521;28;20620;-77
2023/08/26 09:23:19;;;;;;;3.80;1.52;;;;;24.30;100537.00;;;;10089887;28;20427;-78
2023/08/26 09:28:21;;;;;;;2.63;1.55;;;;;24.00;100538.00;;;;10098119;28;20588;-77
2023/08/26 09:33:22;;;;;;;2.05;1.17;;;;;23.80;100528.00;;;;10070861;28;20799;-79
2023/08/26 09:38:24;;;;;;;2.92;1.52;;;;;24.90;100533.00;;;;10094647;28;20497;-78
2023/08/26 09:43:25;;;;;;;4.40;1.60;;;;;24.70;100543.00;;;;10038111;28;20762;-78
2023/08/26 09:48:27;;;;;;;4.45;1.42;;;;;24.70;100525.00;;;;10059395;28;22004;-79
2023/08/26 09:53:30;;;;;;;2.58;1.45;;;;;25.50;100536.00;;;;10113036;28;21987;-78
2023/08/26 09:58:31;;;;;;;3.95;1.40;;;;;24.90;100540.00;;;;10089690;28;20313;-79
2023/08/26 10:03:36;;;;;;;2.17;1.35;;;;;24.30;100546.00;;;;10069989;28;20325;-78
2023/08/26 10:08:41;;;;;;;1.83;1.20;;;;;24.10;100536.00;;;;10091249;28;20207;-77
2023/08/26 10:13:45;;;;;;;1.33;0.80;;;;;25.80;100542.00;;;;10101398;28;20649;-78
2023/08/26 10:18:51;;;;;;;1.35;0.90;;;;;26.10;100543.00;;;;10096864;28;20207;-77
2023/08/26 10:23:53;;;;;;;2.55;1.20;;;;;26.20;100543.00;;;;10118885;28;20241;-78
2023/08/26 10:28:55;;;;;;;2.28;1.20;;;;;25.90;100532.00;;;;10098282;28;20351;-77
2023/08/26 10:34:01;;;;;;;3.70;1.17;;;;;25.70;100541.00;;;;10099895;28;20206;-78
2023/08/26 10:39:03;;;;;;;3.70;1.30;;;;;26.30;100544.00;;;;10068147;28;20218;-78
2023/08/26 10:44:05;;;;;;;2.38;1.20;;;;;25.10;100544.00;;;;10074499;28;20306;-77
2023/08/26 10:49:06;;;;;;;3.83;1.30;;;;;24.20;100533.00;;;;10100337;28;20301;-77
2023/08/26 10:54:07;;;;;;;2.55;1.25;;;;;23.80;100544.00;;;;10101122;28;20210;-77
2023/08/26 10:59:09;;;;;;;2.28;1.30;;;;;23.50;100536.00;;;;10092732;28;20902;-77
2023/08/26 11:04:11;;;;;;;4.00;1.20;;;;;23.20;100543.00;;;;10092277;28;20228;-76
2023/08/26 11:09:18;;;;;;;3.25;1.27;;;;;22.90;100536.00;;;;10072808;28;21392;-77
2023/08/26 11:14:29;;;;;;;1.73;1.00;;;;;23.70;100519.00;;;;10101486;28;20214;-77
2023/08/26 11:19:31;;;;;;;2.10;1.08;;;;;25.80;100532.00;;;;10075109;28;20612;-77
2023/08/26 11:24:32;;;;;;;1.70;0.90;;;;;26.20;100542.00;;;;10099792;28;20302;-77
2023/08/26 11:29:38;;;;;;;2.17;1.05;;;;;26.40;100533.00;;;;10122515;28;20239;-77
2023/08/26 11:34:39;;;;;;;2.30;1.08;;;;;25.40;100538.00;;;;10104341;28;22008;-77
2023/08/26 11:39:40;;;;;;;1.17;0.90;;;;;26.70;100522.00;;;;10080086;28;21837;-77
2023/08/26 11:44:48;;;;;;;1.30;1.10;;;;;26.60;100522.00;;;;10107977;28;20230;-77
2023/08/26 11:49:54;;;;;;;1.80;1.30;;;;;26.80;100522.00;;;;10077826;28;20216;-77
2023/08/26 11:54:55;;;;;;;2.67;1.00;;;;;26.50;100526.00;;;;10116619;28;20802;-78
2023/08/26 12:00:10;;;;;;;2.03;0.95;;;;;27.60;100522.00;;;;10097607;28;20415;-78
2023/08/26 12:05:16;;;;;;;1.35;0.95;;;;;27.80;100521.00;;;;10098992;28;20285;-78
2023/08/26 12:10:18;;;;;;;1.55;0.93;;;;;27.80;100515.00;;;;10091350;28;20217;-77
2023/08/26 12:15:20;;;;;;;1.63;0.90;;;;;27.60;100508.00;;;;10089636;28;20209;-78
2023/08/26 12:20:27;;;;;;;1.00;0.60;;;;;26.20;100524.00;;;;10090470;28;20245;-77
2023/08/26 12:25:32;;;;;;;2.30;0.85;;;;;26.20;100504.00;;;;10092180;28;20225;-77
2023/08/26 12:30:39;;;;;;;0.70;0.70;;;;;27.20;100502.00;;;;10112688;28;20305;-77
2023/08/26 12:35:40;;;;;;;0.65;0.60;;;;;27.10;100511.00;;;;10111856;28;21952;-77
2023/08/26 12:40:47;;;;;;;1.80;0.90;;;;;28.10;100521.00;;;;10096106;28;20214;-78
2023/08/26 12:45:48;;;;;;;3.85;0.77;;;;;27.30;100515.00;;;;10083132;28;20215;-77
2023/08/26 12:50:50;;;;;;;3.63;1.17;;;;;27.50;100511.00;;;;10090141;28;20500;-77
2023/08/26 12:55:51;;;;;;;2.00;0.65;;;;;27.40;100525.00;;;;10067582;28;20211;-77
2023/08/26 13:00:52;;;;;;;1.42;0.60;;;;;27.30;100516.00;;;;10069591;28;20666;-77
2023/08/26 13:05:56;;;;;;;1.13;0.70;;;;;27.50;100515.00;;;;10101089;28;20229;-77
2023/08/26 13:10:59;;;;;;;1.45;0.80;;;;;26.90;100522.00;;;;10101208;28;20206;-78
2023/08/26 13:16:01;;;;;;;1.45;0.70;;;;;27.70;100524.00;;;;10097134;28;20492;-78
2023/08/26 13:21:03;;;;;;;2.38;0.80;;;;;28.10;100529.00;;;;10100605;28;20225;-77
2023/08/26 13:26:04;;;;;;;1.20;0.75;;;;;27.70;100522.00;;;;10089225;28;20221;-78
2023/08/26 13:31:05;;;;;;;1.27;0.70;;;;;27.60;100526.00;;;;10101373;28;20313;-77
2023/08/26 13:36:07;;;;;;;1.17;0.70;;;;;27.10;100523.00;;;;10090239;28;20699;-78
2023/08/26 13:41:08;;;;;;;0.70;0.70;;;;;26.60;100530.00;;;;10108578;28;21573;-77
2023/08/26 13:46:09;;;;;;;1.33;0.60;;;;;25.50;100518.00;;;;10102953;28;20245;-78
2023/08/26 13:51:10;;;;;;;4.00;1.00;;;;;24.20;100532.00;;;;10093054;28;20237;-76
2023/08/26 13:56:12;;;;;;;1.02;0.52;;;;;23.60;100527.00;;;;10084082;28;20213;-77
2023/08/26 14:01:13;;;;;;;3.50;0.73;;;;;23.40;100520.00;;;;10114798;28;20245;-76
2023/08/26 14:06:15;;;;;;;1.65;0.68;;;;;22.40;100543.00;;;;10113771;28;21900;-78
2023/08/26 14:11:16;;;;;;;0.82;0.70;;;;;21.20;100551.00;;;;10095266;28;21008;-77
2023/08/26 14:16:18;;;;;;;1.05;0.75;;;;;19.80;100565.00;;;;10114786;28;20241;-77
2023/08/26 14:21:19;;;;;;;4.05;1.33;;;;;18.70;100575.00;;;;10113357;28;20249;-76
2023/08/26 14:26:20;;;;;;;3.95;1.30;;;;;18.50;100578.00;;;;10085593;28;21957;-77
2023/08/26 14:31:22;;;;;;;1.95;1.08;;;;;18.60;100570.00;;;;10125108;28;20215;-77
2023/08/26 14:36:23;;;;;;;7.47;1.80;;;;;19.00;100573.00;;;;10117591;28;20209;-78
2023/08/26 14:41:24;;;;;;;3.92;1.67;;;;;20.60;100563.00;;;;10102853;28;20272;-78
2023/08/26 14:46:25;;;;;;;3.17;1.40;;;;;25.40;100544.00;;;;10098247;28;20293;-76
2023/08/26 14:51:27;;;;;;;1.85;1.20;;;;;24.10;100547.00;;;;10081100;28;20366;-77
2023/08/26 14:56:28;;;;;;;2.42;1.10;;;;;22.30;100556.00;;;;10095689;28;20206;-77
2023/08/26 15:01:29;;;;;;;2.65;1.13;;;;;21.60;100547.00;;;;10098440;28;20222;-77
2023/08/26 15:06:31;;;;;;;3.17;1.25;;;;;21.30;100537.00;;;;10105212;28;20293;-76
2023/08/26 15:11:32;;;;;;;3.60;1.30;;;;;21.40;100536.00;;;;10100263;28;20206;-77
2023/08/26 15:16:34;;;;;;;2.13;0.75;;;;;21.20;100532.00;;;;10130297;28;20302;-77
2023/08/26 15:21:35;;;;;;;2.05;0.80;;;;;20.80;100532.00;;;;10090986;28;20230;-77
2023/08/26 15:26:36;;;;;;;1.35;1.10;;;;;20.90;100527.00;;;;10107554;28;20325;-75
2023/08/26 15:31:38;;;;;;;3.63;1.15;;;;;20.90;100520.00;;;;10090409;28;20270;-76
2023/08/26 15:36:39;;;;;;;3.28;0.98;;;;;20.50;100518.00;;;;10112017;28;20218;-77
2023/08/26 15:41:40;;;;;;;2.17;1.10;;;;;20.40;100504.00;;;;10093395;28;20230;-78
2023/08/26 15:46:42;;;;;;;2.42;1.20;;;;;20.20;100517.00;;;;10091387;28;21254;-76
2023/08/26 15:51:43;;;;;;;1.73;0.68;;;;;20.00;100515.00;;;;10051416;28;20305;-77
2023/08/26 15:56:44;;;;;;;1.27;0.90;;;;;19.60;100506.00;;;;10084993;28;20313;-78
2023/08/26 16:01:46;;;;;;;1.05;0.80;;;;;19.40;100503.00;;;;10113159;28;20222;-77
2023/08/26 16:06:47;;;;;;;1.50;0.70;;;;;19.20;100501.00;;;;10097786;28;20214;-76
2023/08/26 16:11:48;;;;;;;1.33;0.98;;;;;19.70;100502.00;;;;10121400;28;21343;-77
2023/08/26 16:16:53;;;;;;;2.05;1.02;;;;;20.10;100509.00;;;;10122285;28;20218;-78
2023/08/26 16:21:57;;;;;;;3.40;0.80;;;;;20.60;100502.00;;;;10122917;28;20218;-77
2023/08/26 16:26:58;;;;;;;2.78;1.15;;;;;20.70;100499.00;;;;10082451;28;20797;-77
2023/08/26 16:32:00;;;;;;;3.67;0.90;;;;;20.50;100503.00;;;;10120786;28;20262;-76
2023/08/26 16:37:02;;;;;;;3.58;0.93;;;;;20.30;100498.00;;;;10074619;28;20652;-77
2023/08/26 16:42:03;;;;;;;3.08;0.93;;;;;20.30;100491.00;;;;10094995;28;20301;-77
2023/08/26 16:47:05;;;;;;;4.65;1.15;;;;;20.20;100497.00;;;;10091038;28;20210;-77
2023/08/26 16:52:06;;;;;;;3.58;0.90;;;;;20.20;100483.00;;;;10060448;28;20206;-78
2023/08/26 16:57:08;;;;;;;2.67;0.90;;;;;20.30;100496.00;;;;10070687;28;20742;-78
2023/08/26 17:02:10;;;;;;;1.95;0.77;;;;;20.20;100505.00;;;;10064880;28;21088;-78
2023/08/26 17:07:13;;;;;;;1.40;1.00;;;;;20.10;100499.00;;;;10082399;28;20304;-79
2023/08/26 17:12:14;;;;;;;1.48;1.00;;;;;19.80;100504.00;;;;10067959;28;20242;-76
2023/08/26 17:17:16;;;;;;;3.30;1.25;;;;;19.60;100497.00;;;;10085809;28;20697;-78
2023/08/26 17:22:18;;;;;;;2.67;1.30;;;;;19.40;100498.00;;;;10065917;28;20556;-77
2023/08/26 17:27:21;;;;;;;2.95;0.98;;;;;19.10;100498.00;;;;10082349;28;20217;-77
2023/08/26 17:32:22;;;;;;;2.10;0.90;;;;;18.90;100508.00;;;;10072387;28;20214;-78
2023/08/26 17:37:23;;;;;;;1.23;0.90;;;;;18.70;100502.00;;;;10115844;28;20479;-77
2023/08/26 17:42:25;;;;;;;2.38;1.25;;;;;18.60;100500.00;;;;10098221;28;20236;-77
2023/08/26 17:47:26;;;;;;;2.40;1.35;;;;;18.40;100505.00;;;;10101300;28;20568;-77
2023/08/26 17:52:27;;;;;;;4.18;1.70;;;;;18.30;100504.00;;;;10076750;28;20214;-77
2023/08/26 17:57:29;;;;;;;2.88;2.15;;;;;18.10;100513.00;;;;10086817;28;21103;-76
2023/08/26 18:02:30;;;;;;;2.25;1.20;;;;;18.00;100522.00;;;;10097367;28;20233;-77
2023/08/26 18:07:32;;;;;;;2.55;1.02;;;;;18.00;100530.00;;;;10070735;28;20202;-78
2023/08/26 18:12:33;;;;;;;1.20;0.90;;;;;17.80;100545.00;;;;10091163;28;20667;-78
2023/08/26 18:17:35;;;;;;;2.30;1.05;;;;;17.40;100548.00;;;;10094741;28;20241;-77
2023/08/26 18:22:37;;;;;;;3.88;1.20;;;;;17.00;100551.00;;;;10087574;28;20313;-77
2023/08/26 18:27:38;;;;;;;5.40;1.30;;;;;16.50;100552.00;;;;10077793;28;20485;-78
2023/08/26 18:32:40;;;;;;;3.60;1.23;;;;;16.00;100552.00;;;;10081276;28;20303;-78
2023/08/26 18:37:41;;;;;;;3.70;1.30;;;;;15.70;100548.00;;;;10084140;28;20213;-78
2023/08/26 18:42:46;;;;;;;2.38;1.65;;;;;15.50;100553.00;;;;10086568;28;20759;-78
2023/08/26 18:47:47;;;;;;;2.60;1.58;;;;;15.50;100557.00;;;;10064483;28;20285;-76
2023/08/26 18:52:48;;;;;;;3.22;1.63;;;;;15.50;100559.00;;;;10047402;28;20671;-77
2023/08/26 18:57:50;;;;;;;3.55;1.92;;;;;15.50;100544.00;;;;10083996;28;20222;-77
2023/08/26 19:02:51;;;;;;;5.72;2.03;;;;;15.40;100552.00;;;;10059379;28;20237;-76
2023/08/26 19:07:53;;;;;;;4.70;2.28;;;;;15.30;100548.00;;;;10097831;28;20647;-77
2023/08/26 19:12:54;;;;;;;4.28;2.33;;;;;15.20;100560.00;;;;10097176;28;20266;-77
2023/08/26 19:17:55;;;;;;;3.13;2.42;;;;;15.10;100560.00;;;;10100621;28;20214;-78
2023/08/26 19:22:57;;;;;;;2.53;2.33;;;;;14.90;100565.00;;;;10065197;28;20759;-76
2023/08/26 19:27:58;;;;;;;2.70;2.30;;;;;14.90;100570.00;;;;10086086;28;20213;-78
2023/08/26 19:33:00;;;;;;;3.13;2.30;;;;;14.80;100563.00;;;;10092489;28;21280;-77
2023/08/26 19:38:03;;;;;;;3.63;2.38;;;;;14.70;100557.00;;;;10072563;28;20316;-78
2023/08/26 19:43:04;;;;;;;4.72;2.72;;;;;14.70;100559.00;;;;10084295;28;20234;-76
2023/08/26 19:48:06;;;;;;;4.57;2.88;;;;;14.70;100557.00;;;;10099551;28;20202;-77
2023/08/26 19:53:07;;;;;;;3.92;2.58;;;;;14.60;100548.00;;;;10063811;28;20925;-79
2023/08/26 19:58:09;;;;;;;3.67;2.65;;;;;14.60;100541.00;;;;10092424;28;20314;-77
2023/08/26 20:03:11;;;;;;;6.13;2.85;;;;;14.50;100543.00;;;;10084212;28;20836;-75
2023/08/26 20:08:12;;;;;;;4.55;2.60;;;;;14.40;100549.00;;;;10092103;28;21539;-75
2023/08/26 20:13:13;;;;;;;3.50;2.75;;;;;14.30;100542.00;;;;10074550;28;20202;-78
2023/08/26 20:18:15;;;;;;;4.50;2.58;;;;;14.30;100545.00;;;;10084754;28;21968;-77
2023/08/26 20:23:16;;;;;;;3.92;2.53;;;;;14.30;100592.00;;;;10098758;28;20234;-77
2023/08/26 20:28:18;;;;;;;3.80;2.75;;;;;14.40;100553.00;;;;10084636;28;22283;-76
2023/08/26 20:33:19;;;;;;;3.45;2.70;;;;;14.50;100550.00;;;;10061082;28;21175;-76
2023/08/26 20:38:20;;;;;;;4.43;2.75;;;;;14.40;100535.00;;;;10090343;28;20218;-77
2023/08/26 20:43:22;;;;;;;4.25;2.70;;;;;14.30;100540.00;;;;10081981;28;20312;-78
2023/08/26 20:48:27;;;;;;;5.45;2.67;;;;;14.30;100524.00;;;;10087817;28;20949;-78
2023/08/26 20:53:28;;;;;;;6.75;3.13;;;;;14.20;100530.00;;;;10094943;28;20257;-78
2023/08/26 20:58:29;;;;;;;4.63;3.30;;;;;14.20;100518.00;;;;10075572;28;20210;-77
2023/08/26 21:03:31;;;;;;;5.32;4.10;;;;;14.30;100520.00;;;;10065681;28;20610;-78
2023/08/26 21:08:33;;;;;;;4.88;3.28;;;;;14.30;100499.00;;;;10069101;28;20648;-78
2023/08/26 21:13:37;;;;;;;12.07;3.53;;;;;14.30;100504.00;;;;10078644;28;20202;-78
2023/08/26 21:18:38;;;;;;;5.78;3.60;;;;;14.30;100502.00;;;;10063129;28;20575;-76
2023/08/26 21:23:39;;;;;;;5.03;3.75;;;;;14.30;100515.00;;;;10108172;28;20238;-76
2023/08/26 21:28:41;;;;;;;4.27;3.87;;;;;14.40;100518.00;;;;10091762;28;20234;-77
2023/08/26 21:33:42;;;;;;;6.30;4.22;;;;;14.40;100507.00;;;;10079457;28;20743;-76
2023/08/26 21:38:44;;;;;;;10.25;3.92;;;;;14.50;100514.00;;;;10098453;28;20397;-77
2023/08/26 21:43:46;;;;;;;9.80;4.22;;;;;14.50;100526.00;;;;10100940;28;20218;-78
2023/08/26 21:48:47;;;;;;;5.40;3.60;;;;;14.50;100525.00;;;;10072396;28;20240;-76
2023/08/26 21:53:48;;;;;;;5.15;3.25;;;;;14.50;100515.00;;;;10100099;28;20237;-77
2023/08/26 21:58:50;;;;;;;23.40;14.10;;;;;14.50;100513.00;;;;10097091;28;20214;-76
2023/08/26 22:03:51;;;;;;;11.02;7.45;;;;;14.50;100516.00;;;;10062605;28;20317;-76
2023/08/26 22:08:52;;;;;;;6.22;3.30;;;;;14.50;100515.00;;;;10095614;28;20819;-76
2023/08/26 22:13:54;;;;;;;5.38;2.80;;;;;14.30;100515.00;;;;10073246;28;20210;-76
2023/08/26 22:18:55;;;;;;;3.85;2.60;;;;;14.20;100508.00;;;;10055138;28;20848;-76
2023/08/26 22:23:56;;;;;;;5.32;2.78;;;;;14.00;100490.00;;;;10064728;28;20352;-75
2023/08/26 22:28:59;;;;;;;4.88;2.78;;;;;13.90;100500.00;;;;10102378;28;20830;-74
2023/08/26 22:34:00;;;;;;;4.03;2.88;;;;;13.70;100491.00;;;;10094705;28;20245;-74
2023/08/26 22:39:02;;;;;;;4.28;3.38;;;;;13.60;100486.00;;;;10069106;28;21490;-74
2023/08/26 22:44:19;;;;;;;9.27;4.78;;;;;13.60;100483.00;;;;10081842;28;21258;-75
2023/08/26 22:49:21;;;;;;;4.63;3.60;;;;;13.50;100492.00;;;;10082326;28;20217;-76
2023/08/26 22:54:22;;;;;;;4.27;3.23;;;;;13.40;100508.00;;;;10097336;28;21413;-76
2023/08/26 22:59:23;;;;;;;4.23;3.30;;;;;13.40;100511.00;;;;10047438;28;20513;-75
2023/08/26 23:04:25;;;;;;;4.27;3.47;;;;;13.40;100501.00;;;;10060523;28;20226;-76
2023/08/26 23:09:27;;;;;;;6.43;3.70;;;;;13.40;100497.00;;;;10084481;28;20259;-76
2023/08/26 23:14:28;;;;;;;6.67;3.40;;;;;13.50;100490.00;;;;10080568;28;20878;-75
2023/08/26 23:19:29;;;;;;;7.77;3.83;;;;;13.50;100492.00;;;;10082213;28;20428;-77
2023/08/26 23:24:30;;;;;;;7.43;4.33;;;;;13.60;100511.00;;;;10064019;28;20321;-75
2023/08/26 23:29:32;;;;;;;5.80;4.37;;;;;13.60;100492.00;;;;10041323;28;20195;-75
2023/08/26 23:34:33;;;;;;;5.40;4.30;;;;;13.70;100502.00;;;;10080982;28;20741;-75
2023/08/26 23:39:35;;;;;;;9.40;4.67;;;;;13.70;100490.00;;;;10063872;28;20308;-77
2023/08/26 23:44:39;;;;;;;9.80;5.23;;;;;13.70;100485.00;;;;10045184;28;20225;-76
2023/08/26 23:49:40;;;;;;;10.57;5.10;;;;;13.80;100473.00;;;;10055507;28;20332;-76
2023/08/26 23:54:41;;;;;;;6.60;4.80;;;;;13.80;100462.00;;;;10063562;28;20942;-76
2023/08/26 23:59:42;;;;;;;11.03;5.70;;;;;13.80;100457.00;;;;10110978;28;20284;-75
